createdAt,value
2022-10-16T00:01:07.439Z,98374.88
2022-10-16T00:03:37.826Z,98370.03
2022-10-16T00:06:07.342Z,98375.69
2022-10-16T00:08:36.043Z,98378.91
2022-10-16T00:11:06.427Z,98383.84
2022-10-16T00:13:35.345Z,98379.09
2022-10-16T00:16:05.538Z,98383.63
2022-10-16T00:18:33.708Z,98375.88
2022-10-16T00:21:04.797Z,98378.47
2022-10-16T00:23:33.402Z,98376.19
2022-10-16T00:26:03.522Z,98374.25
2022-10-16T00:28:31.946Z,98374.44
2022-10-16T00:31:00.775Z,98376.03
2022-10-16T00:33:30.579Z,98379.91
2022-10-16T00:36:00.117Z,98380.63
2022-10-16T00:38:28.248Z,98380.94
2022-10-16T00:40:56.865Z,98382.09
2022-10-16T00:43:40.970Z,98370.19
2022-10-16T00:46:15.654Z,98384.31
2022-10-16T00:48:49.143Z,98377.91
2022-10-16T00:51:17.672Z,98380.09
2022-10-16T00:53:46.646Z,98383.16
2022-10-16T00:56:15.134Z,98386.59
2022-10-16T00:58:43.166Z,98376.88
2022-10-16T01:01:11.579Z,98380.28
2022-10-16T01:03:39.773Z,98383.44
2022-10-16T01:06:18.492Z,98378.63
2022-10-16T01:08:52.012Z,98392.28
2022-10-16T01:11:25.892Z,98384.94
2022-10-16T01:13:56.485Z,98387.50
2022-10-16T01:16:32.032Z,98386.13
2022-10-16T01:19:04.984Z,98385.97
2022-10-16T01:21:38.785Z,98391.25
2022-10-16T01:24:12.569Z,98387.66
2022-10-16T01:26:56.834Z,98385.72
2022-10-16T01:29:29.103Z,98378.03
2022-10-16T01:31:59.769Z,98384.75
2022-10-16T01:34:33.510Z,98383.72
2022-10-16T01:37:05.184Z,98386.66
2022-10-16T01:39:35.051Z,98381.66
2022-10-16T01:42:07.325Z,98385.41
2022-10-16T01:44:38.485Z,98389.00
2022-10-16T01:47:06.677Z,98385.34
2022-10-16T01:49:36.436Z,98389.91
2022-10-16T01:52:08.170Z,98396.91
2022-10-16T01:54:38.002Z,98389.19
2022-10-16T01:57:08.492Z,98386.56
2022-10-16T01:59:41.467Z,98394.56
2022-10-16T02:02:12.286Z,98394.34
2022-10-16T02:04:42.582Z,98395.47
2022-10-16T02:07:11.176Z,98399.00
2022-10-16T02:09:39.382Z,98400.31
2022-10-16T02:12:12.507Z,98401.91
2022-10-16T02:14:42.980Z,98406.56
2022-10-16T02:17:16.717Z,98410.34
2022-10-16T02:19:46.314Z,98416.09
2022-10-16T02:22:18.274Z,98416.78
2022-10-16T02:24:52.464Z,98416.75
2022-10-16T02:27:27.706Z,98419.78
2022-10-16T02:29:59.868Z,98419.84
2022-10-16T02:32:32.778Z,98417.44
2022-10-16T02:35:01.580Z,98407.72
2022-10-16T02:37:30.534Z,98418.66
2022-10-16T02:40:00.369Z,98410.97
2022-10-16T02:42:35.502Z,98406.63
2022-10-16T02:45:05.860Z,98407.72
2022-10-16T02:47:34.232Z,98411.28
2022-10-16T02:50:02.606Z,98410.44
2022-10-16T02:52:30.871Z,98408.66
2022-10-16T02:54:58.975Z,98412.44
2022-10-16T02:57:27.505Z,98410.09
2022-10-16T02:59:56.083Z,98417.41
2022-10-16T03:02:25.794Z,98420.59
2022-10-16T03:04:53.875Z,98419.25
2022-10-16T03:07:22.440Z,98419.03
2022-10-16T03:09:50.522Z,98421.59
2022-10-16T03:12:19.039Z,98417.19
2022-10-16T03:14:47.189Z,98431.09
2022-10-16T03:17:17.949Z,98435.41
2022-10-16T03:19:47.443Z,98435.59
2022-10-16T03:22:15.872Z,98427.91
2022-10-16T03:24:43.988Z,98433.22
2022-10-16T03:27:12.541Z,98429.19
2022-10-16T03:29:40.646Z,98427.56
2022-10-16T03:32:09.126Z,98425.38
2022-10-16T03:34:37.253Z,98435.34
2022-10-16T03:37:07.058Z,98434.81
2022-10-16T03:39:35.227Z,98435.81
2022-10-16T03:42:03.709Z,98439.16
2022-10-16T03:44:32.415Z,98445.97
2022-10-16T03:47:00.883Z,98443.56
2022-10-16T03:49:29.040Z,98446.94
2022-10-16T03:51:57.418Z,98446.25
2022-10-16T03:54:26.875Z,98448.16
2022-10-16T03:56:55.328Z,98449.38
2022-10-16T03:59:23.446Z,98446.03
2022-10-16T04:01:51.854Z,98446.25
2022-10-16T04:04:20.022Z,98448.66
2022-10-16T04:06:48.504Z,98439.53
2022-10-16T04:09:16.538Z,98445.69
2022-10-16T04:11:46.288Z,98450.09
2022-10-16T04:14:15.055Z,98442.13
2022-10-16T04:16:43.288Z,98443.91
2022-10-16T04:19:11.572Z,98446.91
2022-10-16T04:21:39.920Z,98447.00
2022-10-16T04:24:08.091Z,98459.81
2022-10-16T04:26:36.400Z,98457.69
2022-10-16T04:29:07.222Z,98451.16
2022-10-16T04:31:35.629Z,98449.63
2022-10-16T04:34:03.672Z,98447.56
2022-10-16T04:36:32.096Z,98444.56
2022-10-16T04:39:00.224Z,98451.59
2022-10-16T04:41:28.584Z,98447.31
2022-10-16T04:43:56.808Z,98443.91
2022-10-16T04:46:26.646Z,98457.34
2022-10-16T04:48:54.939Z,98456.41
2022-10-16T04:51:23.185Z,98457.78
2022-10-16T04:53:51.266Z,98458.09
2022-10-16T04:56:19.511Z,98461.59
2022-10-16T04:58:47.742Z,98457.13
2022-10-16T05:01:16.202Z,98464.22
2022-10-16T05:03:45.859Z,98467.25
2022-10-16T05:06:14.129Z,98471.00
2022-10-16T05:08:42.267Z,98468.41
2022-10-16T05:11:10.618Z,98468.22
2022-10-16T05:13:38.964Z,98476.22
2022-10-16T05:16:08.086Z,98475.00
2022-10-16T05:18:36.336Z,98485.88
2022-10-16T05:21:06.783Z,98483.81
2022-10-16T05:23:35.184Z,98490.50
2022-10-16T05:26:03.435Z,98500.41
2022-10-16T05:28:32.371Z,98495.31
2022-10-16T05:31:00.758Z,98496.63
2022-10-16T05:33:28.932Z,98490.00
2022-10-16T05:35:57.215Z,98493.59
2022-10-16T05:38:26.650Z,98507.50
2022-10-16T05:40:55.509Z,98506.72
2022-10-16T05:43:23.690Z,98507.25
2022-10-16T05:45:58.754Z,98515.16
2022-10-16T05:48:27.263Z,98519.91
2022-10-16T05:50:59.481Z,98516.25
2022-10-16T05:53:29.421Z,98510.41
2022-10-16T05:55:58.320Z,98523.13
2022-10-16T05:58:26.998Z,98518.59
2022-10-16T06:00:56.596Z,98521.28
2022-10-16T06:03:25.000Z,98534.44
2022-10-16T06:05:53.466Z,98535.59
2022-10-16T06:08:23.827Z,98533.03
2022-10-16T06:11:04.286Z,98539.59
2022-10-16T06:13:32.640Z,98548.38
2022-10-16T06:16:02.683Z,98546.78
2022-10-16T06:18:31.547Z,98553.28
2022-10-16T06:21:00.288Z,98555.41
2022-10-16T06:23:30.374Z,98568.00
2022-10-16T06:26:08.423Z,98562.56
2022-10-16T06:28:36.762Z,98566.16
2022-10-16T06:31:08.343Z,98576.78
2022-10-16T06:33:36.961Z,98578.03
2022-10-16T06:36:06.195Z,98575.75
2022-10-16T06:38:34.575Z,98578.28
2022-10-16T06:41:02.936Z,98584.88
2022-10-16T06:43:33.582Z,98581.09
2022-10-16T06:46:02.373Z,98579.47
2022-10-16T06:48:31.181Z,98578.66
2022-10-16T06:51:00.681Z,98583.81
2022-10-16T06:53:39.611Z,98585.59
2022-10-16T06:56:09.927Z,98570.97
2022-10-16T06:58:39.942Z,98574.38
2022-10-16T07:01:09.101Z,98579.75
2022-10-16T07:03:39.225Z,98584.00
2022-10-16T07:06:09.399Z,98582.81
2022-10-16T07:08:38.974Z,98585.53
2022-10-16T07:11:08.678Z,98588.19
2022-10-16T07:13:37.087Z,98591.59
2022-10-16T07:16:11.676Z,98583.13
2022-10-16T07:18:41.392Z,98591.19
2022-10-16T07:21:10.811Z,98587.31
2022-10-16T07:23:39.465Z,98581.00
2022-10-16T07:26:08.581Z,98589.19
2022-10-16T07:28:36.904Z,98599.31
2022-10-16T07:31:05.856Z,98591.03
2022-10-16T07:33:36.688Z,98591.66
2022-10-16T07:36:05.591Z,98590.38
2022-10-16T07:38:34.088Z,98593.69
2022-10-16T07:41:03.502Z,98596.19
2022-10-16T07:43:32.192Z,98593.22
2022-10-16T07:46:02.603Z,98601.28
2022-10-16T07:48:36.728Z,98598.13
2022-10-16T07:51:06.918Z,98593.38
2022-10-16T07:53:35.471Z,98602.53
2022-10-16T07:56:04.991Z,98605.19
2022-10-16T07:58:33.357Z,98607.09
2022-10-16T08:01:05.093Z,98609.25
2022-10-16T08:03:33.350Z,98613.09
2022-10-16T08:06:03.514Z,98611.56
2022-10-16T08:08:31.937Z,98613.03
2022-10-16T08:11:00.428Z,98615.75
2022-10-16T08:13:29.336Z,98610.09
2022-10-16T08:15:57.631Z,98609.41
2022-10-16T08:18:25.821Z,98611.38
2022-10-16T08:20:57.975Z,98609.25
2022-10-16T08:23:27.906Z,98606.47
2022-10-16T08:25:56.631Z,98610.75
2022-10-16T08:28:25.619Z,98612.16
2022-10-16T08:30:53.956Z,98612.72
2022-10-16T08:33:22.008Z,98620.06
2022-10-16T08:35:54.621Z,98621.19
2022-10-16T08:38:23.109Z,98625.00
2022-10-16T08:40:53.824Z,98632.25
2022-10-16T08:43:29.203Z,98634.28
2022-10-16T08:46:11.572Z,98621.03
2022-10-16T08:48:45.650Z,98637.28
2022-10-16T08:51:21.047Z,98631.09
2022-10-16T08:53:53.184Z,98633.16
2022-10-16T08:56:23.343Z,98624.53
2022-10-16T08:58:55.117Z,98626.94
2022-10-16T09:01:31.480Z,98623.91
2022-10-16T09:04:45.247Z,98635.97
2022-10-16T09:07:17.523Z,98624.53
2022-10-16T09:09:55.601Z,98622.75
2022-10-16T09:12:30.102Z,98629.34
2022-10-16T09:15:05.117Z,98622.91
2022-10-16T09:17:40.402Z,98630.72
2022-10-16T09:20:26.583Z,98640.34
2022-10-16T09:22:58.278Z,98635.91
2022-10-16T09:25:26.651Z,98646.38
2022-10-16T09:27:56.664Z,98639.22
2022-10-16T09:30:25.217Z,98658.00
2022-10-16T09:32:55.022Z,98658.97
2022-10-16T09:35:25.028Z,98653.94
2022-10-16T09:37:55.991Z,98658.69
2022-10-16T09:40:29.114Z,98656.59
2022-10-16T09:43:03.868Z,98650.84
2022-10-16T09:45:32.007Z,98647.78
2022-10-16T09:48:01.426Z,98654.16
2022-10-16T09:50:30.577Z,98662.22
2022-10-16T09:53:07.840Z,98658.47
2022-10-16T09:55:36.172Z,98651.69
2022-10-16T09:58:15.475Z,98651.44
2022-10-16T10:00:44.079Z,98660.09
2022-10-16T10:03:13.104Z,98646.34
2022-10-16T10:05:41.851Z,98653.22
2022-10-16T10:08:18.018Z,98659.94
2022-10-16T10:10:50.550Z,98643.88
2022-10-16T10:13:22.051Z,98642.25
2022-10-16T10:15:50.302Z,98659.78
2022-10-16T10:18:20.973Z,98659.44
2022-10-16T10:20:59.774Z,98663.22
2022-10-16T10:23:29.499Z,98659.75
2022-10-16T10:25:59.959Z,98661.34
2022-10-16T10:28:49.475Z,98664.69
2022-10-16T10:31:24.363Z,98664.81
2022-10-16T10:33:56.690Z,98667.00
2022-10-16T10:36:30.336Z,98664.13
2022-10-16T10:39:00.682Z,98664.59
2022-10-16T10:41:41.976Z,98654.41
2022-10-16T10:44:17.804Z,98663.34
2022-10-16T10:46:51.112Z,98669.19
2022-10-16T10:49:30.842Z,98658.25
2022-10-16T10:52:06.348Z,98658.31
2022-10-16T10:54:41.104Z,98649.53
2022-10-16T10:57:13.031Z,98649.59
2022-10-16T10:59:57.165Z,98647.47
2022-10-16T11:02:29.246Z,98651.47
2022-10-16T11:05:17.506Z,98631.84
2022-10-16T11:07:50.106Z,98650.53
2022-10-16T11:10:25.978Z,98656.31
2022-10-16T11:12:57.790Z,98646.47
2022-10-16T11:15:31.263Z,98657.28
2022-10-16T11:18:02.700Z,98651.28
2022-10-16T11:20:34.372Z,98654.41
2022-10-16T11:23:04.877Z,98660.25
2022-10-16T11:25:34.877Z,98662.09
2022-10-16T11:28:06.121Z,98667.94
2022-10-16T11:30:36.691Z,98660.41
2022-10-16T11:33:22.546Z,98649.81
2022-10-16T11:35:54.103Z,98659.25
2022-10-16T11:38:28.548Z,98655.47
2022-10-16T11:41:00.458Z,98654.56
2022-10-16T11:43:31.672Z,98661.47
2022-10-16T11:46:06.551Z,98654.91
2022-10-16T11:48:41.752Z,98657.69
2022-10-16T11:51:16.343Z,98662.41
2022-10-16T11:53:49.809Z,98652.00
2022-10-16T11:56:20.193Z,98654.03
2022-10-16T11:58:57.010Z,98646.16
2022-10-16T12:01:31.380Z,98659.53
2022-10-16T12:04:14.561Z,98661.97
2022-10-16T12:06:45.859Z,98656.44
2022-10-16T12:09:19.396Z,98670.34
2022-10-16T12:11:47.709Z,98664.09
2022-10-16T12:14:42.874Z,98673.13
2022-10-16T12:17:30.043Z,98667.34
2022-10-16T12:20:03.400Z,98676.81
2022-10-16T12:22:32.569Z,98678.19
2022-10-16T12:25:00.991Z,98675.00
2022-10-16T12:27:31.768Z,98678.69
2022-10-16T12:30:01.491Z,98677.31
2022-10-16T12:32:49.865Z,98682.06
2022-10-16T12:35:22.738Z,98688.00
2022-10-16T12:37:51.591Z,98687.66
2022-10-16T12:40:28.863Z,98679.81
2022-10-16T12:42:57.270Z,98683.81
2022-10-16T12:45:32.142Z,98686.19
2022-10-16T12:48:03.083Z,98676.34
2022-10-16T12:50:36.711Z,98686.84
2022-10-16T12:53:07.023Z,98691.59
2022-10-16T12:55:46.150Z,98684.25
2022-10-16T12:58:40.276Z,98679.47
2022-10-16T13:01:14.711Z,98698.78
2022-10-16T13:04:26.431Z,98695.81
2022-10-16T13:06:55.548Z,98696.16
2022-10-16T13:09:39.092Z,98696.41
2022-10-16T13:12:20.088Z,98696.38
2022-10-16T13:15:00.652Z,98698.06
2022-10-16T13:17:34.339Z,98694.44
2022-10-16T13:20:11.644Z,98692.38
2022-10-16T13:22:45.576Z,98696.88
2022-10-16T13:25:24.772Z,98691.47
2022-10-16T13:27:57.071Z,98703.75
2022-10-16T13:30:30.648Z,98696.59
2022-10-16T13:33:02.364Z,98697.47
2022-10-16T13:35:34.917Z,98697.13
2022-10-16T13:38:07.960Z,98703.53
2022-10-16T13:40:36.410Z,98703.97
2022-10-16T13:43:04.707Z,98691.88
2022-10-16T13:45:33.117Z,98699.06
2022-10-16T13:48:05.564Z,98689.50
2022-10-16T13:50:35.341Z,98691.06
2022-10-16T13:53:07.313Z,98687.03
2022-10-16T13:55:35.878Z,98680.09
2022-10-16T13:58:09.189Z,98676.97
2022-10-16T14:03:09.115Z,98669.25
2022-10-16T14:05:50.729Z,98675.78
2022-10-16T14:08:18.938Z,98687.72
2022-10-16T14:10:50.624Z,98695.91
2022-10-16T14:13:22.138Z,98699.88
2022-10-16T14:15:52.136Z,98701.84
2022-10-16T14:18:22.987Z,98710.34
2022-10-16T14:20:52.715Z,98717.69
2022-10-16T14:23:23.561Z,98718.75
2022-10-16T14:25:52.002Z,98725.00
2022-10-16T14:28:21.260Z,98722.69
2022-10-16T14:30:54.841Z,98724.84
2022-10-16T14:33:25.518Z,98721.16
2022-10-16T14:36:05.293Z,98735.38
2022-10-16T14:38:34.055Z,98725.66
2022-10-16T14:41:02.772Z,98733.69
2022-10-16T14:43:35.098Z,98738.22
2022-10-16T14:46:05.066Z,98738.22
2022-10-16T14:48:33.525Z,98730.47
2022-10-16T14:51:03.271Z,98734.56
2022-10-16T14:53:31.830Z,98727.59
2022-10-16T14:56:00.309Z,98731.88
2022-10-16T14:58:30.245Z,98727.03
2022-10-16T15:00:58.779Z,98739.88
2022-10-16T15:03:27.023Z,98747.13
2022-10-16T15:05:55.540Z,98743.50
2022-10-16T15:08:25.150Z,98748.88
2022-10-16T15:10:53.947Z,98752.31
2022-10-16T15:13:22.125Z,98750.22
2022-10-16T15:15:50.951Z,98744.13
2022-10-16T15:18:21.519Z,98740.53
2022-10-16T15:20:51.905Z,98743.50
2022-10-16T15:25:55.733Z,98749.16
2022-10-16T15:28:25.355Z,98746.13
2022-10-16T15:30:55.117Z,98741.97
2022-10-16T15:33:24.869Z,98756.88
2022-10-16T15:35:54.255Z,98755.25
2022-10-16T15:38:23.914Z,98759.66
2022-10-16T15:40:52.563Z,98762.09
2022-10-16T15:43:22.351Z,98761.59
2022-10-16T15:46:01.405Z,98762.16
2022-10-16T15:48:29.962Z,98763.75
2022-10-16T15:50:58.338Z,98772.09
2022-10-16T15:53:26.672Z,98779.22
2022-10-16T15:55:55.209Z,98781.22
2022-10-16T15:58:25.966Z,98776.72
2022-10-16T16:00:58.133Z,98783.66
2022-10-16T16:03:26.474Z,98785.44
2022-10-16T16:05:55.018Z,98782.50
2022-10-16T16:08:23.326Z,98785.16
2022-10-16T16:11:00.937Z,98789.56
2022-10-16T16:13:30.786Z,98786.41
2022-10-16T16:15:59.130Z,98793.38
2022-10-16T16:18:27.326Z,98786.13
2022-10-16T16:20:55.832Z,98792.09
2022-10-16T16:23:27.038Z,98796.56
2022-10-16T16:26:07.050Z,98790.66
2022-10-16T16:28:37.009Z,98793.72
2022-10-16T16:31:05.869Z,98790.09
2022-10-16T16:33:34.679Z,98789.28
2022-10-16T16:36:08.294Z,98797.91
2022-10-16T16:38:38.731Z,98815.28
2022-10-16T16:41:14.001Z,98830.81
2022-10-16T16:43:43.967Z,98828.03
2022-10-16T16:46:13.048Z,98837.28
2022-10-16T16:48:41.944Z,98841.81
2022-10-16T16:51:16.187Z,98844.84
2022-10-16T16:53:44.761Z,98844.41
2022-10-16T16:56:13.123Z,98843.66
2022-10-16T16:58:41.417Z,98843.56
2022-10-16T17:01:20.993Z,98845.81
2022-10-16T17:03:53.365Z,98853.16
2022-10-16T17:06:23.141Z,98856.63
2022-10-16T17:08:51.923Z,98862.06
2022-10-16T17:11:21.989Z,98862.97
2022-10-16T17:13:53.981Z,98869.91
2022-10-16T17:16:29.432Z,98876.47
2022-10-16T17:18:57.847Z,98878.81
2022-10-16T17:21:27.044Z,98891.84
2022-10-16T17:23:55.520Z,98887.72
2022-10-16T17:26:23.886Z,98882.94
2022-10-16T17:28:54.041Z,98895.22
2022-10-16T17:31:23.904Z,98904.06
2022-10-16T17:33:53.608Z,98899.63
2022-10-16T17:36:22.887Z,98899.44
2022-10-16T17:38:51.670Z,98901.56
2022-10-16T17:41:21.937Z,98894.13
2022-10-16T17:43:51.477Z,98902.91
2022-10-16T17:46:21.418Z,98910.66
2022-10-16T17:48:51.671Z,98918.63
2022-10-16T17:51:24.561Z,98921.63
2022-10-16T17:53:53.963Z,98927.03
2022-10-16T17:56:23.112Z,98928.69
2022-10-16T17:58:52.051Z,98939.28
2022-10-16T18:01:22.558Z,98934.19
2022-10-16T18:03:52.339Z,98927.03
2022-10-16T18:06:23.419Z,98934.19
2022-10-16T18:08:52.126Z,98932.13
2022-10-16T18:11:20.810Z,98936.34
2022-10-16T18:13:49.078Z,98932.16
2022-10-16T18:16:17.463Z,98935.22
2022-10-16T18:18:45.982Z,98937.66
2022-10-16T18:21:15.949Z,98937.63
2022-10-16T18:23:50.913Z,98933.16
2022-10-16T18:26:21.237Z,98930.69
2022-10-16T18:28:51.163Z,98938.81
2022-10-16T18:31:20.021Z,98937.03
2022-10-16T18:33:50.764Z,98942.72
2022-10-16T18:36:20.780Z,98940.88
2022-10-16T18:38:50.928Z,98944.13
2022-10-16T18:41:19.836Z,98951.28
2022-10-16T18:43:47.970Z,98953.72
2022-10-16T18:46:17.912Z,98959.22
2022-10-16T18:48:47.055Z,98957.19
2022-10-16T18:51:18.719Z,98960.84
2022-10-16T18:53:50.356Z,98962.59
2022-10-16T18:56:21.529Z,98969.88
2022-10-16T18:58:50.103Z,98962.84
2022-10-16T19:01:21.712Z,98972.84
2022-10-16T19:03:50.627Z,98979.56
2022-10-16T19:06:19.121Z,98977.34
2022-10-16T19:08:47.438Z,98982.66
2022-10-16T19:11:17.829Z,98982.06
2022-10-16T19:13:48.836Z,98984.88
2022-10-16T19:16:21.037Z,98983.31
2022-10-16T19:18:50.400Z,98992.53
2022-10-16T19:21:18.966Z,98987.53
2022-10-16T19:23:48.350Z,98999.44
2022-10-16T19:26:18.271Z,99002.47
2022-10-16T19:28:48.237Z,99004.44
2022-10-16T19:31:18.521Z,99008.38
2022-10-16T19:33:47.411Z,99010.41
2022-10-16T19:36:17.360Z,99013.56
2022-10-16T19:38:46.971Z,99017.22
2022-10-16T19:41:17.032Z,99015.91
2022-10-16T19:43:45.781Z,99021.50
2022-10-16T19:46:17.465Z,99021.06
2022-10-16T19:48:46.312Z,99029.75
2022-10-16T19:51:17.135Z,99029.31
2022-10-16T19:53:45.602Z,99024.81
2022-10-16T19:56:14.665Z,99026.19
2022-10-16T19:58:43.003Z,99026.47
2022-10-16T20:01:11.714Z,99026.94
2022-10-16T20:03:41.580Z,99025.66
2022-10-16T20:06:10.661Z,99030.03
2022-10-16T20:08:40.069Z,99039.44
2022-10-16T20:11:12.309Z,99042.13
2022-10-16T20:13:41.605Z,99035.81
2022-10-16T20:16:12.145Z,99040.31
2022-10-16T20:18:42.098Z,99044.28
2022-10-16T20:21:11.934Z,99047.56
2022-10-16T20:23:40.302Z,99054.22
2022-10-16T20:26:11.593Z,99059.09
2022-10-16T20:28:40.245Z,99055.69
2022-10-16T20:31:11.246Z,99054.22
2022-10-16T20:33:39.630Z,99059.00
2022-10-16T20:36:12.202Z,99062.59
2022-10-16T20:38:40.933Z,99068.00
2022-10-16T20:41:10.219Z,99065.50
2022-10-16T20:46:09.948Z,99075.97
2022-10-16T20:48:41.231Z,99071.66
2022-10-16T20:51:15.383Z,99068.09
2022-10-16T20:53:44.030Z,99068.66
2022-10-16T20:56:12.808Z,99064.88
2022-10-16T20:58:42.108Z,99074.84
2022-10-16T21:01:12.659Z,99078.75
2022-10-16T21:03:41.181Z,99076.59
2022-10-16T21:06:11.396Z,99090.53
2022-10-16T21:08:42.914Z,99094.25
2022-10-16T21:11:13.031Z,99095.09
2022-10-16T21:13:41.461Z,99097.34
2022-10-16T21:16:10.540Z,99104.09
2022-10-16T21:18:44.091Z,99110.38
2022-10-16T21:21:20.817Z,99104.75
2022-10-16T21:23:50.838Z,99104.06
2022-10-16T21:26:23.396Z,99120.63
2022-10-16T21:28:51.846Z,99125.13
2022-10-16T21:31:21.521Z,99120.63
2022-10-16T21:33:50.135Z,99129.19
2022-10-16T21:36:19.891Z,99129.66
2022-10-16T21:38:48.657Z,99132.63
2022-10-16T21:41:20.323Z,99138.41
2022-10-16T21:43:48.942Z,99132.63
2022-10-16T21:46:18.652Z,99133.41
2022-10-16T21:48:47.252Z,99131.81
2022-10-16T21:51:16.455Z,99133.91
2022-10-16T21:53:44.612Z,99136.66
2022-10-16T21:56:18.957Z,99151.56
2022-10-16T21:58:47.388Z,99148.31
2022-10-16T22:01:17.630Z,99141.72
2022-10-16T22:03:46.791Z,99150.78
2022-10-16T22:06:16.656Z,99146.47
2022-10-16T22:08:46.353Z,99145.53
2022-10-16T22:11:18.481Z,99153.16
2022-10-16T22:13:54.198Z,99152.44
2022-10-16T22:16:26.553Z,99143.69
2022-10-16T22:18:55.633Z,99150.53
2022-10-16T22:21:24.508Z,99143.09
2022-10-16T22:23:52.896Z,99146.28
2022-10-16T22:26:21.272Z,99151.22
2022-10-16T22:28:50.908Z,99147.22
2022-10-16T22:31:21.248Z,99147.63
2022-10-16T22:33:49.550Z,99148.28
2022-10-16T22:36:17.802Z,99152.03
2022-10-16T22:38:46.257Z,99154.34
2022-10-16T22:41:15.991Z,99164.16
2022-10-16T22:43:45.718Z,99165.19
2022-10-16T22:46:17.139Z,99156.97
2022-10-16T22:48:46.036Z,99165.41
2022-10-16T22:51:16.909Z,99161.00
2022-10-16T22:53:46.433Z,99169.03
2022-10-16T22:56:15.668Z,99162.94
2022-10-16T22:58:44.033Z,99163.69
2022-10-16T23:01:18.661Z,99163.44
2022-10-16T23:03:47.020Z,99169.34
2022-10-16T23:06:15.776Z,99168.53
2022-10-16T23:08:44.165Z,99178.19
2022-10-16T23:11:13.967Z,99167.53
2022-10-16T23:13:45.643Z,99174.44
2022-10-16T23:16:16.993Z,99171.94
2022-10-16T23:18:45.975Z,99179.94
2022-10-16T23:21:15.909Z,99179.50
2022-10-16T23:23:44.408Z,99178.44
2022-10-16T23:26:14.353Z,99179.47
2022-10-16T23:28:42.772Z,99172.28
2022-10-16T23:31:11.440Z,99174.34
2022-10-16T23:33:41.274Z,99174.72
2022-10-16T23:36:11.450Z,99178.09
2022-10-16T23:38:39.796Z,99181.75
2022-10-16T23:41:08.324Z,99183.50
2022-10-16T23:43:37.035Z,99188.38
2022-10-16T23:46:06.187Z,99180.06
2022-10-16T23:48:34.399Z,99184.84
2022-10-16T23:51:04.148Z,99183.13
2022-10-16T23:53:32.287Z,99184.72
2022-10-16T23:56:00.749Z,99190.91
2022-10-16T23:58:28.808Z,99182.75
